Time;durP1;ratioP1;P1;durP2;ratioP2;P2;SDS_P1;SDS_P2;PMS_P1;PMS_P2;Temp;Humidity;BMP_temperature;BMP_pressure;BME280_temperature;BME280_humidity;BME280_pressure;Samples;Min_cycle;Max_cycle;Signal;HPM_P1;HPM_P2
2023/07/15 00:01:18;;;;;;;6.57;5.43;;;;;;;18.88;100.00;100530.41;1458531;88;22364;-78
2023/07/15 00:03:45;;;;;;;14.80;5.27;;;;;;;18.86;100.00;100534.62;1459392;88;21492;-80
2023/07/15 00:06:12;;;;;;;8.33;5.40;;;;;;;18.79;100.00;100531.09;1468465;88;21290;-80
2023/07/15 00:08:38;;;;;;;8.80;5.70;;;;;;;18.69;100.00;100528.72;1451951;89;21393;-80
2023/07/15 00:11:05;;;;;;;8.10;5.27;;;;;;;18.64;100.00;100531.69;1456446;89;21421;-80
2023/07/15 00:13:32;;;;;;;8.93;4.67;;;;;;;18.58;100.00;100531.95;1453291;88;21486;-80
2023/07/15 00:15:58;;;;;;;7.83;5.53;;;;;;;18.55;100.00;100532.88;1479398;88;21286;-79
2023/07/15 00:18:25;;;;;;;8.20;5.07;;;;;;;18.56;100.00;100530.50;1464090;89;22218;-79
2023/07/15 00:20:51;;;;;;;5.60;4.50;;;;;;;18.56;100.00;100535.37;1460464;89;21410;-80
2023/07/15 00:23:25;;;;;;;9.47;4.37;;;;;;;18.57;100.00;100529.49;1462717;88;21359;-79
2023/07/15 00:25:53;;;;;;;8.20;5.00;;;;;;;18.51;100.00;100531.11;1470556;89;21529;-80
2023/07/15 00:28:22;;;;;;;7.80;4.27;;;;;;;18.43;100.00;100533.42;1464145;89;21478;-80
2023/07/15 00:30:57;;;;;;;6.27;4.47;;;;;;;18.37;100.00;100540.91;1455760;88;21509;-80
2023/07/15 00:33:22;;;;;;;5.80;4.67;;;;;;;18.34;100.00;100534.60;1466423;89;22222;-80
2023/07/15 00:35:49;;;;;;;6.93;4.50;;;;;;;18.35;100.00;100537.59;1461031;88;21479;-80
2023/07/15 00:38:15;;;;;;;7.37;4.93;;;;;;;18.38;100.00;100537.71;1477066;87;21432;-80
2023/07/15 00:40:46;;;;;;;4.57;3.77;;;;;;;18.39;100.00;100536.19;1467517;88;22393;-79
2023/07/15 00:43:58;;;;;;;7.00;4.63;;;;;;;18.40;100.00;100536.49;1464938;89;21566;-79
2023/07/15 00:47:12;;;;;;;7.27;5.00;;;;;;;18.42;100.00;100534.97;1460120;88;21503;-81
2023/07/15 00:49:36;;;;;;;6.92;5.03;;;;;;;18.40;100.00;100541.85;1450641;88;21418;-79
2023/07/15 00:52:13;;;;;;;5.20;4.47;;;;;;;18.37;100.00;100535.55;1465707;88;21474;-79
2023/07/15 00:54:42;;;;;;;8.20;5.33;;;;;;;18.36;100.00;100533.91;1478542;88;21500;-81
2023/07/15 00:57:11;;;;;;;10.80;4.78;;;;;;;18.35;100.00;100530.06;1481632;88;21380;-81
2023/07/15 00:59:39;;;;;;;7.60;4.37;;;;;;;18.34;100.00;100525.74;1455139;89;21540;-81
2023/07/15 01:02:08;;;;;;;7.27;4.83;;;;;;;18.33;100.00;100523.58;1468640;87;21396;-80
2023/07/15 01:04:35;;;;;;;5.60;4.20;;;;;;;18.32;100.00;100523.25;1461097;88;21514;-81
2023/07/15 01:07:04;;;;;;;6.07;4.50;;;;;;;18.34;100.00;100523.06;1467672;88;21501;-79
2023/07/15 01:09:30;;;;;;;7.00;4.40;;;;;;;18.35;100.00;100525.53;1444871;91;21399;-81
2023/07/15 01:11:57;;;;;;;7.17;4.57;;;;;;;18.35;100.00;100520.69;1467281;88;21434;-81
2023/07/15 01:14:23;;;;;;;5.60;4.63;;;;;;;18.35;100.00;100521.52;1463514;88;21949;-81
2023/07/15 01:16:50;;;;;;;6.07;4.23;;;;;;;18.36;100.00;100521.84;1463208;89;22684;-79
2023/07/15 01:19:19;;;;;;;7.07;4.40;;;;;;;18.37;100.00;100515.45;1454259;89;21412;-76
2023/07/15 01:21:50;;;;;;;10.72;4.85;;;;;;;18.37;100.00;100516.79;1451893;89;21381;-78
2023/07/15 01:24:22;;;;;;;4.77;4.00;;;;;;;18.36;100.00;100513.81;1450580;89;21322;-80
2023/07/15 01:26:53;;;;;;;7.87;4.73;;;;;;;18.37;100.00;100516.79;1437414;90;21457;-81
2023/07/15 01:29:19;;;;;;;5.30;4.17;;;;;;;18.39;100.00;100518.77;1458635;88;21337;-80
2023/07/15 01:31:45;;;;;;;10.17;5.03;;;;;;;18.36;100.00;100509.79;1460027;88;21396;-80
2023/07/15 01:34:12;;;;;;;9.37;5.03;;;;;;;18.35;100.00;100511.31;1423148;90;21259;-80
2023/07/15 01:36:38;;;;;;;10.37;5.80;;;;;;;18.32;100.00;100512.53;1422250;90;21525;-80
2023/07/15 01:39:06;;;;;;;7.07;4.40;;;;;;;18.28;100.00;100501.91;1461318;88;21480;-80
2023/07/15 01:41:34;;;;;;;4.80;4.07;;;;;;;18.28;100.00;100508.59;1455813;88;21385;-80
2023/07/15 01:44:03;;;;;;;5.60;4.37;;;;;;;18.29;100.00;100496.84;1467048;89;22480;-79
2023/07/15 01:46:29;;;;;;;7.40;4.80;;;;;;;18.31;100.00;100498.00;1454298;89;21566;-80
2023/07/15 01:48:59;;;;;;;7.03;4.63;;;;;;;18.29;100.00;100495.51;1463467;88;21381;-80
2023/07/15 01:51:24;;;;;;;11.90;4.60;;;;;;;18.26;100.00;100493.22;1471921;88;22081;-80
2023/07/15 01:53:50;;;;;;;6.27;4.53;;;;;;;18.24;100.00;100497.94;1464541;89;21396;-80
2023/07/15 01:56:18;;;;;;;5.60;4.33;;;;;;;18.19;100.00;100501.74;1465854;88;21462;-80
2023/07/15 01:58:45;;;;;;;6.40;3.70;;;;;;;18.16;100.00;100500.28;1468170;89;21396;-79
2023/07/15 02:01:11;;;;;;;5.10;3.70;;;;;;;18.16;100.00;100502.14;1465069;88;21522;-80
2023/07/15 02:03:37;;;;;;;7.03;4.60;;;;;;;18.13;100.00;100499.33;1465811;88;22401;-80
2023/07/15 02:06:04;;;;;;;6.10;4.27;;;;;;;18.06;100.00;100510.49;1466881;88;21498;-80
2023/07/15 02:08:32;;;;;;;6.07;4.23;;;;;;;18.01;100.00;100517.78;1440979;90;22205;-81
2023/07/15 02:10:58;;;;;;;8.97;4.80;;;;;;;17.96;100.00;100517.53;1464933;88;21470;-80
2023/07/15 02:13:25;;;;;;;6.87;3.90;;;;;;;17.88;100.00;100516.33;1467574;88;21492;-79
2023/07/15 02:15:52;;;;;;;5.67;4.07;;;;;;;17.77;100.00;100535.55;1442809;90;21361;-80
2023/07/15 02:18:18;;;;;;;6.90;4.70;;;;;;;17.69;100.00;100535.68;1473938;88;21373;-80
2023/07/15 02:20:46;;;;;;;7.17;3.90;;;;;;;17.65;100.00;100534.42;1471630;88;21382;-80
2023/07/15 02:23:12;;;;;;;6.73;4.30;;;;;;;17.63;100.00;100535.11;1461786;88;21388;-81
2023/07/15 02:25:38;;;;;;;6.73;4.03;;;;;;;17.63;100.00;100532.44;1471195;87;21403;-80
2023/07/15 02:28:04;;;;;;;8.63;4.77;;;;;;;17.57;100.00;100543.39;1478233;86;21359;-79
2023/07/15 02:30:31;;;;;;;7.53;4.50;;;;;;;17.52;100.00;100542.64;1456665;88;22505;-80
2023/07/15 02:32:58;;;;;;;7.37;4.30;;;;;;;17.45;100.00;100543.06;1466910;89;21547;-81
2023/07/15 02:35:24;;;;;;;5.63;4.27;;;;;;;17.45;100.00;100543.06;1458967;87;22326;-76
2023/07/15 02:37:51;;;;;;;7.13;4.17;;;;;;;17.45;100.00;100551.09;1467347;87;21492;-76
2023/07/15 02:40:17;;;;;;;12.20;5.80;;;;;;;17.46;100.00;100545.23;1484444;86;21352;-76
2023/07/15 02:42:43;;;;;;;9.23;4.80;;;;;;;17.44;100.00;100546.77;1445662;90;21406;-76
2023/07/15 02:45:12;;;;;;;7.13;4.13;;;;;;;17.45;100.00;100548.41;1465421;87;21611;-74
2023/07/15 02:47:41;;;;;;;5.57;4.57;;;;;;;17.44;100.00;100546.77;1462457;89;21551;-74
2023/07/15 02:50:09;;;;;;;6.73;4.57;;;;;;;17.42;100.00;100542.11;1468335;88;21603;-74
2023/07/15 02:52:38;;;;;;;9.70;4.73;;;;;;;17.40;100.00;100556.69;1458071;88;21437;-74
2023/07/15 02:55:09;;;;;;;12.03;5.43;;;;;;;17.30;100.00;100560.50;1470714;87;21554;-74
2023/07/15 02:57:36;;;;;;;6.97;5.20;;;;;;;17.24;100.00;100559.09;1483114;87;21369;-75
2023/07/15 03:00:09;;;;;;;9.70;4.30;;;;;;;17.20;100.00;100553.78;1484054;87;21376;-74
2023/07/15 03:02:31;;;;;;;9.40;4.90;;;;;;;17.22;100.00;100556.59;1454018;88;21501;-75
2023/07/15 03:04:57;;;;;;;5.17;4.07;;;;;;;17.27;100.00;100556.05;1449146;89;22339;-74
2023/07/15 03:07:23;;;;;;;7.27;5.37;;;;;;;17.26;100.00;100552.55;1450426;88;21393;-75
2023/07/15 03:09:50;;;;;;;6.27;4.60;;;;;;;17.24;100.00;100557.25;1458356;88;21888;-74
2023/07/15 03:12:17;;;;;;;14.63;6.27;;;;;;;17.20;100.00;100559.95;1482730;87;21447;-74
2023/07/15 03:14:43;;;;;;;9.80;4.77;;;;;;;17.19;100.00;100558.83;1480087;88;21396;-76
2023/07/15 03:17:10;;;;;;;5.77;4.67;;;;;;;17.18;100.00;100555.84;1470431;88;21508;-75
2023/07/15 03:19:37;;;;;;;12.33;5.57;;;;;;;17.21;100.00;100555.46;1468839;87;21389;-75
2023/07/15 03:22:05;;;;;;;8.73;4.07;;;;;;;17.26;100.00;100557.05;1467263;88;21397;-75
2023/07/15 03:24:32;;;;;;;11.13;4.10;;;;;;;17.28;100.00;100559.85;1482295;87;22248;-75
2023/07/15 03:26:58;;;;;;;7.93;4.87;;;;;;;17.33;100.00;100556.63;1482629;88;21323;-75
2023/07/15 03:29:24;;;;;;;9.50;4.87;;;;;;;17.34;100.00;100560.95;1474331;88;21559;-74
2023/07/15 03:31:50;;;;;;;10.87;5.23;;;;;;;17.33;100.00;100560.64;1473048;88;21507;-74
2023/07/15 03:34:17;;;;;;;11.73;5.60;;;;;;;17.35;100.00;100559.44;1472830;87;21322;-73
2023/07/15 03:36:43;;;;;;;6.30;5.07;;;;;;;17.36;100.00;100559.74;1477391;88;21343;-75
2023/07/15 03:39:09;;;;;;;6.33;4.73;;;;;;;17.40;100.00;100560.19;1477430;87;21489;-75
2023/07/15 03:41:36;;;;;;;11.93;5.33;;;;;;;17.46;100.00;100556.75;1463373;88;21360;-75
2023/07/15 03:44:03;;;;;;;7.20;5.57;;;;;;;17.51;100.00;100568.23;1457150;89;21374;-76
2023/07/15 03:46:31;;;;;;;7.87;4.57;;;;;;;17.55;100.00;100569.02;1466215;89;21355;-76
2023/07/15 03:48:57;;;;;;;7.33;5.23;;;;;;;17.56;100.00;100570.66;1452593;89;21451;-76
2023/07/15 03:51:23;;;;;;;7.13;4.87;;;;;;;17.64;100.00;100571.06;1439209;89;21325;-75
2023/07/15 03:53:49;;;;;;;7.63;5.77;;;;;;;17.67;100.00;100576.55;1454047;89;21392;-76
2023/07/15 03:56:15;;;;;;;9.53;5.67;;;;;;;17.70;100.00;100578.84;1459836;89;21401;-76
2023/07/15 03:58:42;;;;;;;6.63;4.80;;;;;;;17.74;100.00;100578.77;1453407;89;21510;-76
2023/07/15 04:01:08;;;;;;;5.50;4.50;;;;;;;17.80;100.00;100577.52;1461247;89;21290;-75
2023/07/15 04:03:34;;;;;;;6.63;5.17;;;;;;;17.85;100.00;100575.61;1460021;89;22324;-76
2023/07/15 04:06:00;;;;;;;8.57;5.07;;;;;;;17.91;100.00;100580.20;1458186;89;21495;-76
2023/07/15 04:08:26;;;;;;;6.77;5.53;;;;;;;17.97;100.00;100577.27;1458640;89;21349;-76
2023/07/15 04:10:52;;;;;;;9.07;5.70;;;;;;;17.99;100.00;100578.73;1451848;89;21525;-75
2023/07/15 04:13:18;;;;;;;9.10;6.40;;;;;;;18.02;100.00;100570.83;1458439;89;21458;-75
2023/07/15 04:15:45;;;;;;;9.90;5.60;;;;;;;18.04;100.00;100572.30;1469573;89;21386;-75
2023/07/15 04:18:11;;;;;;;5.80;5.20;;;;;;;18.08;100.00;100578.61;1455325;89;22243;-75
2023/07/15 04:20:37;;;;;;;10.23;4.40;;;;;;;18.10;100.00;100581.93;1455416;89;22406;-75
2023/07/15 04:23:03;;;;;;;10.60;5.63;;;;;;;18.12;100.00;100583.88;1432819;89;21333;-74
2023/07/15 04:25:30;;;;;;;6.80;5.43;;;;;;;18.15;100.00;100590.19;1461437;89;21341;-74
2023/07/15 04:27:56;;;;;;;7.90;6.17;;;;;;;18.16;100.00;100595.37;1456161;89;21341;-74
2023/07/15 04:30:22;;;;;;;7.83;5.57;;;;;;;18.23;100.00;100582.02;1446514;89;21415;-75
2023/07/15 04:32:48;;;;;;;16.10;5.60;;;;;;;18.30;100.00;100579.37;1451579;89;21341;-74
2023/07/15 04:35:15;;;;;;;6.13;5.57;;;;;;;18.37;100.00;100583.78;1462899;89;22241;-75
2023/07/15 04:37:42;;;;;;;10.23;6.13;;;;;;;18.39;100.00;100581.73;1459944;89;22390;-75
2023/07/15 04:40:11;;;;;;;7.95;5.42;;;;;;;18.45;100.00;100584.98;1457058;89;21378;-75
2023/07/15 04:42:37;;;;;;;6.78;5.67;;;;;;;18.58;100.00;100587.42;1456969;89;21526;-75
2023/07/15 04:45:05;;;;;;;7.28;5.70;;;;;;;18.68;100.00;100587.39;1458321;89;22353;-75
2023/07/15 04:47:33;;;;;;;11.20;5.72;;;;;;;18.75;100.00;100583.44;1450808;89;22324;-75
2023/07/15 04:49:59;;;;;;;9.03;7.25;;;;;;;18.87;100.00;100586.39;1461563;89;21549;-75
2023/07/15 04:52:25;;;;;;;7.50;5.65;;;;;;;18.97;100.00;100578.00;1457314;88;21517;-75
2023/07/15 04:54:51;;;;;;;10.35;5.78;;;;;;;19.07;100.00;100578.44;1457841;89;21376;-75
2023/07/15 04:57:19;;;;;;;7.30;5.40;;;;;;;19.16;100.00;100573.22;1453511;88;21333;-75
2023/07/15 04:59:46;;;;;;;10.03;5.55;;;;;;;19.24;100.00;100573.05;1454363;89;22951;-77
2023/07/15 05:02:12;;;;;;;6.50;5.37;;;;;;;19.36;100.00;100575.48;1443710;89;21327;-76
2023/07/15 05:04:38;;;;;;;11.65;4.87;;;;;;;19.50;100.00;100572.81;1435658;89;22295;-78
2023/07/15 05:07:05;;;;;;;7.92;5.62;;;;;;;19.64;100.00;100576.37;1467588;89;21340;-78
2023/07/15 05:09:32;;;;;;;7.87;5.67;;;;;;;19.78;100.00;100578.91;1458674;89;21385;-77
2023/07/15 05:11:58;;;;;;;6.55;5.78;;;;;;;19.92;100.00;100584.30;1464338;89;21529;-78
2023/07/15 05:14:24;;;;;;;8.78;5.67;;;;;;;20.03;100.00;100590.41;1444352;89;22324;-78
2023/07/15 05:16:51;;;;;;;8.85;5.60;;;;;;;20.13;100.00;100594.84;1454123;89;22008;-78
2023/07/15 05:19:17;;;;;;;8.60;5.58;;;;;;;20.19;99.80;100600.73;1467745;89;21399;-78
2023/07/15 05:21:43;;;;;;;11.90;5.55;;;;;;;20.34;100.00;100599.69;1436711;89;22265;-78
2023/07/15 05:24:09;;;;;;;6.95;4.85;;;;;;;20.46;99.49;100594.02;1464509;89;21290;-78
2023/07/15 05:26:35;;;;;;;9.15;6.10;;;;;;;20.55;98.54;100598.17;1459508;88;21452;-78
2023/07/15 05:29:02;;;;;;;7.05;5.53;;;;;;;20.68;98.63;100600.00;1457181;89;21312;-77
2023/07/15 05:31:28;;;;;;;6.12;5.20;;;;;;;20.81;97.79;100601.33;1459051;89;21488;-77
2023/07/15 05:33:55;;;;;;;8.13;5.20;;;;;;;20.86;97.06;100595.30;1462115;89;22309;-76
2023/07/15 05:36:21;;;;;;;6.47;5.78;;;;;;;20.91;96.67;100598.19;1463180;89;21844;-76
2023/07/15 05:38:47;;;;;;;10.18;6.00;;;;;;;21.02;97.11;100595.38;1463640;89;21496;-76
2023/07/15 05:41:13;;;;;;;6.62;4.50;;;;;;;21.18;97.38;100593.03;1455625;89;21900;-76
2023/07/15 05:43:39;;;;;;;8.15;4.28;;;;;;;21.21;94.67;100598.52;1466891;89;21289;-76
2023/07/15 05:46:06;;;;;;;7.62;4.37;;;;;;;21.33;94.85;100579.30;1457284;89;21391;-83
2023/07/15 05:48:32;;;;;;;8.15;4.53;;;;;;;21.38;93.60;100586.77;1457068;89;22361;-85
2023/07/15 05:50:59;;;;;;;6.40;4.78;;;;;;;21.60;92.19;100596.68;1461058;89;21363;-87
2023/07/15 05:53:25;;;;;;;4.92;4.28;;;;;;;21.60;92.19;100596.68;1458035;88;21555;-87
2023/07/15 05:55:52;;;;;;;12.53;5.37;;;;;;;21.78;92.63;100594.10;1462687;89;21437;-85
2023/07/15 05:58:18;;;;;;;7.83;5.05;;;;;;;21.84;90.49;100596.45;1456278;89;21565;-85
2023/07/15 06:00:46;;;;;;;6.97;4.45;;;;;;;22.01;91.60;100600.76;1464009;89;21347;-85
2023/07/15 06:03:13;;;;;;;13.30;5.05;;;;;;;22.19;91.33;100598.18;1445734;89;21376;-85
2023/07/15 06:05:39;;;;;;;9.63;4.30;;;;;;;22.29;88.25;100604.41;1454185;89;21612;-85
2023/07/15 06:08:06;;;;;;;7.20;4.55;;;;;;;22.40;89.11;100614.48;1456824;89;22531;-84
2023/07/15 06:10:32;;;;;;;6.10;4.72;;;;;;;22.41;86.60;100614.80;1449286;89;22412;-85
2023/07/15 06:12:59;;;;;;;6.17;4.00;;;;;;;22.49;88.27;100611.80;1456438;89;21459;-85
2023/07/15 06:15:25;;;;;;;8.90;6.10;;;;;;;22.62;88.36;100604.65;1458440;89;21340;-85
2023/07/15 06:17:52;;;;;;;5.60;4.78;;;;;;;22.74;88.31;100605.03;1459087;89;22343;-85
2023/07/15 06:20:18;;;;;;;5.47;4.45;;;;;;;22.90;88.44;100609.02;1458149;89;22257;-86
2023/07/15 06:22:45;;;;;;;6.95;4.35;;;;;;;23.05;88.35;100606.51;1453200;89;21340;-86
2023/07/15 06:25:12;;;;;;;7.22;4.92;;;;;;;23.10;86.59;100612.88;1453105;89;21525;-86
2023/07/15 06:31:39;;;;;;;5.53;3.60;;;;;;;23.35;86.86;100611.94;1457532;89;22471;-86
2023/07/15 06:34:06;;;;;;;6.33;4.28;;;;;;;23.49;85.85;100616.13;1458024;89;22273;-86
2023/07/15 06:36:32;;;;;;;5.83;3.83;;;;;;;23.61;85.99;100618.86;1459676;89;21445;-86
2023/07/15 06:38:58;;;;;;;5.47;3.95;;;;;;;23.77;85.67;100618.27;1456424;89;21562;-85
2023/07/15 06:41:25;;;;;;;6.65;4.55;;;;;;;23.94;85.37;100617.58;1418863;89;22900;-83
2023/07/15 06:43:51;;;;;;;11.45;4.28;;;;;;;24.05;85.14;100616.79;1462240;88;21334;-85
2023/07/15 06:46:17;;;;;;;5.10;4.12;;;;;;;24.20;84.90;100611.78;1457191;89;21312;-85
2023/07/15 06:48:45;;;;;;;5.87;4.05;;;;;;;24.36;84.41;100612.95;1460074;89;21518;-85
2023/07/15 06:51:14;;;;;;;4.53;3.75;;;;;;;24.40;81.08;100614.66;1456877;89;21325;-85
2023/07/15 06:53:41;;;;;;;5.95;4.20;;;;;;;24.12;77.63;100609.41;1460002;88;22450;-86
2023/07/15 06:56:07;;;;;;;5.78;3.90;;;;;;;24.17;79.97;100620.36;1462307;89;22357;-85
2023/07/15 06:58:34;;;;;;;6.17;4.28;;;;;;;24.33;81.34;100614.25;1454992;89;21562;-85
2023/07/15 07:01:00;;;;;;;5.03;4.03;;;;;;;24.48;80.82;100607.58;1456396;89;21429;-86
2023/07/15 07:03:27;;;;;;;6.28;3.77;;;;;;;24.64;80.77;100617.70;1455442;89;21311;-85
2023/07/15 07:05:54;;;;;;;8.75;4.33;;;;;;;24.80;80.55;100612.63;1440424;89;21392;-85
2023/07/15 07:08:23;;;;;;;6.22;3.58;;;;;;;24.93;80.39;100607.78;1458750;89;21854;-83
2023/07/15 07:10:52;;;;;;;6.33;4.30;;;;;;;25.04;79.58;100611.54;1461813;89;21385;-85
2023/07/15 07:13:19;;;;;;;5.28;3.70;;;;;;;25.16;79.84;100610.19;1459096;89;22427;-87
2023/07/15 07:15:47;;;;;;;8.75;3.55;;;;;;;25.29;79.06;100611.28;1456678;89;21400;-88
2023/07/15 07:18:14;;;;;;;4.55;3.75;;;;;;;25.31;77.96;100614.55;1458365;89;21533;-85
2023/07/15 07:20:42;;;;;;;4.37;3.45;;;;;;;25.44;78.31;100616.17;1459772;89;21304;-85
2023/07/15 07:23:08;;;;;;;5.87;4.40;;;;;;;25.54;77.98;100608.22;1452947;89;21452;-86
2023/07/15 07:25:35;;;;;;;4.58;3.80;;;;;;;25.67;77.78;100608.47;1444975;89;21378;-85
2023/07/15 07:28:01;;;;;;;4.92;3.87;;;;;;;25.76;76.11;100616.49;1441858;89;21619;-89
2023/07/15 07:30:27;;;;;;;4.15;3.60;;;;;;;25.72;75.38;100610.44;1454267;89;21452;-89
2023/07/15 07:32:54;;;;;;;7.58;4.55;;;;;;;25.77;76.43;100614.59;1463018;89;21392;-87
2023/07/15 07:35:20;;;;;;;8.15;4.60;;;;;;;25.87;76.67;100609.41;1452337;89;21460;-81
2023/07/15 07:37:46;;;;;;;9.83;4.20;;;;;;;25.99;76.23;100612.86;1460933;89;21370;-80
2023/07/15 07:40:13;;;;;;;5.90;4.33;;;;;;;26.10;76.61;100617.39;1451236;89;21444;-80
2023/07/15 07:42:39;;;;;;;5.22;4.50;;;;;;;26.24;76.02;100623.83;1458725;89;21369;-81
2023/07/15 07:45:14;;;;;;;7.78;4.45;;;;;;;26.34;75.09;100619.94;1462669;89;22415;-80
2023/07/15 07:47:40;;;;;;;9.78;4.08;;;;;;;26.45;74.52;100623.09;1460457;89;21400;-80
2023/07/15 07:50:08;;;;;;;6.42;3.87;;;;;;;26.54;73.61;100617.56;1457313;89;21444;-80
2023/07/15 07:52:34;;;;;;;4.55;4.15;;;;;;;26.59;73.77;100622.80;1457521;89;21421;-80
2023/07/15 07:55:01;;;;;;;4.12;3.45;;;;;;;26.71;73.94;100618.08;1459779;89;21591;-80
2023/07/15 07:57:27;;;;;;;5.37;4.40;;;;;;;26.80;72.98;100621.19;1455247;89;22250;-79
2023/07/15 07:59:54;;;;;;;5.60;4.05;;;;;;;26.91;73.73;100619.70;1465006;89;21518;-80
2023/07/15 08:02:20;;;;;;;4.85;3.62;;;;;;;27.04;73.71;100616.33;1453638;89;21378;-80
2023/07/15 08:04:48;;;;;;;9.10;4.72;;;;;;;27.12;72.17;100611.27;1464183;89;21436;-80
2023/07/15 08:07:14;;;;;;;6.60;3.37;;;;;;;27.21;72.46;100617.12;1457777;89;21377;-80
2023/07/15 08:09:40;;;;;;;11.05;3.95;;;;;;;27.17;71.50;100616.81;1454210;89;21386;-81
2023/07/15 08:12:10;;;;;;;5.22;3.83;;;;;;;27.26;72.74;100625.34;1436340;89;21393;-80
2023/07/15 08:14:36;;;;;;;7.25;3.65;;;;;;;27.40;72.96;100625.23;1452945;89;21569;-79
2023/07/15 08:17:03;;;;;;;8.70;3.58;;;;;;;27.54;71.97;100627.56;1455828;89;21459;-80
2023/07/15 08:19:29;;;;;;;4.45;3.77;;;;;;;27.67;71.42;100629.86;1456107;89;21459;-80
2023/07/15 08:21:55;;;;;;;6.17;3.65;;;;;;;27.83;71.24;100631.70;1439282;89;21452;-80
2023/07/15 08:24:22;;;;;;;4.22;2.95;;;;;;;27.90;69.81;100629.57;1453317;89;21430;-80
2023/07/15 08:26:48;;;;;;;8.98;3.50;;;;;;;27.89;68.96;100629.30;1452377;89;21318;-80
2023/07/15 08:29:14;;;;;;;7.90;3.30;;;;;;;27.99;68.78;100629.11;1464514;89;21503;-80
2023/07/15 08:31:40;;;;;;;4.85;3.30;;;;;;;28.11;68.61;100629.23;1459788;89;21497;-80
2023/07/15 08:34:06;;;;;;;3.70;2.90;;;;;;;28.24;68.26;100629.33;1455927;89;21305;-80
2023/07/15 08:36:34;;;;;;;5.97;3.27;;;;;;;28.32;67.23;100633.48;1455729;89;22258;-79
2023/07/15 08:39:00;;;;;;;3.65;2.90;;;;;;;28.47;67.94;100632.25;1445474;89;21324;-79
2023/07/15 08:41:27;;;;;;;6.40;3.25;;;;;;;28.62;67.05;100632.89;1459909;89;22162;-80
2023/07/15 08:43:53;;;;;;;6.87;3.20;;;;;;;28.75;66.74;100631.08;1454006;89;21967;-79
2023/07/15 08:46:29;;;;;;;4.20;3.15;;;;;;;28.83;66.16;100627.55;1457302;89;21341;-80
2023/07/15 08:48:58;;;;;;;3.83;2.67;;;;;;;28.91;65.80;100620.25;1447427;89;22243;-80
2023/07/15 08:51:35;;;;;;;6.83;3.05;;;;;;;29.02;65.70;100634.20;1458038;89;21422;-80
2023/07/15 08:54:03;;;;;;;3.37;3.00;;;;;;;29.12;64.42;100626.11;1464548;89;21622;-81
2023/07/15 08:56:31;;;;;;;6.05;3.77;;;;;;;29.14;62.90;100625.83;1459741;89;21651;-81
2023/07/15 08:58:59;;;;;;;14.80;3.30;;;;;;;29.22;62.63;100628.05;1456957;89;21372;-79
2023/07/15 09:01:25;;;;;;;6.22;3.47;;;;;;;29.28;62.40;100623.44;1454601;89;21509;-81
2023/07/15 09:03:51;;;;;;;3.80;3.12;;;;;;;29.35;62.19;100622.66;1458526;89;21371;-80
2023/07/15 09:06:17;;;;;;;4.30;3.10;;;;;;;29.45;62.27;100624.03;1448898;89;21430;-80
2023/07/15 09:08:48;;;;;;;6.28;3.05;;;;;;;29.53;61.85;100626.24;1463871;89;22243;-80
2023/07/15 09:11:15;;;;;;;6.08;3.20;;;;;;;29.58;60.37;100628.98;1453991;89;21452;-78
2023/07/15 09:13:41;;;;;;;4.33;2.98;;;;;;;29.57;59.27;100624.60;1458464;89;21305;-79
2023/07/15 09:16:07;;;;;;;6.08;2.83;;;;;;;29.61;59.72;100617.54;1457219;89;21370;-79
2023/07/15 09:18:38;;;;;;;3.90;2.90;;;;;;;29.74;60.88;100618.12;1447120;89;21415;-80
2023/07/15 09:21:14;;;;;;;5.50;2.65;;;;;;;29.86;60.55;100622.77;1450103;88;21392;-79
2023/07/15 09:23:43;;;;;;;4.37;2.60;;;;;;;29.94;59.37;100618.14;1454594;89;22333;-79
2023/07/15 09:26:10;;;;;;;4.92;2.58;;;;;;;29.86;57.51;100620.05;1452555;89;22324;-79
2023/07/15 09:28:38;;;;;;;6.45;2.65;;;;;;;29.89;58.80;100623.59;1470607;89;21426;-79
2023/07/15 09:31:05;;;;;;;6.12;2.90;;;;;;;29.93;58.74;100622.53;1457417;89;22288;-79
2023/07/15 09:33:35;;;;;;;4.72;2.45;;;;;;;29.96;58.31;100625.52;1468472;89;21467;-78
2023/07/15 09:36:03;;;;;;;3.77;2.77;;;;;;;30.06;57.89;100625.51;1458320;89;21869;-79
2023/07/15 09:38:35;;;;;;;4.22;2.47;;;;;;;30.08;56.44;100626.06;1466442;89;21312;-78
2023/07/15 09:41:04;;;;;;;7.35;2.30;;;;;;;30.02;57.46;100623.06;1457573;89;22281;-78
2023/07/15 09:43:50;;;;;;;3.40;2.20;;;;;;;30.10;56.49;100628.53;1458061;89;21407;-79
2023/07/15 09:46:20;;;;;;;8.45;2.40;;;;;;;30.20;55.98;100622.24;1464167;89;21571;-79
2023/07/15 09:48:50;;;;;;;5.28;2.55;;;;;;;30.33;55.90;100625.27;1444124;89;21387;-78
2023/07/15 09:51:18;;;;;;;5.05;2.45;;;;;;;30.46;54.66;100621.70;1464855;89;21896;-79
2023/07/15 09:53:51;;;;;;;6.58;3.30;;;;;;;30.57;54.15;100614.58;1438673;89;21370;-78
2023/07/15 09:56:31;;;;;;;3.58;2.35;;;;;;;30.71;54.06;100615.38;1454392;89;21267;-79
2023/07/15 09:59:08;;;;;;;6.17;2.62;;;;;;;30.83;53.03;100616.46;1459541;89;21585;-79
2023/07/15 10:01:57;;;;;;;5.10;2.35;;;;;;;30.95;45.58;100621.88;1456881;89;21458;-79
2023/07/15 10:04:33;;;;;;;7.28;2.83;;;;;;;30.99;39.12;100612.03;1460515;89;22376;-79
2023/07/15 10:07:02;;;;;;;3.02;2.58;;;;;;;31.00;40.22;100615.58;1459616;89;21334;-79
2023/07/15 10:09:32;;;;;;;4.25;2.30;;;;;;;31.02;40.36;100616.94;1456589;89;22414;-80
2023/07/15 10:12:00;;;;;;;6.28;2.27;;;;;;;31.11;40.67;100617.17;1462271;89;21371;-79
2023/07/15 10:14:30;;;;;;;3.52;2.42;;;;;;;31.19;40.29;100612.50;1453577;89;22302;-79
2023/07/15 10:17:11;;;;;;;2.75;2.33;;;;;;;31.29;40.22;100608.88;1459234;88;22265;-78
2023/07/15 10:19:50;;;;;;;4.55;2.70;;;;;;;31.29;39.32;100606.70;1449616;88;21607;-79
2023/07/15 10:22:18;;;;;;;3.47;2.80;;;;;;;31.15;39.45;100612.77;1461263;89;21319;-79
2023/07/15 10:24:55;;;;;;;5.35;2.40;;;;;;;31.19;39.61;100618.52;1460689;89;22307;-79
2023/07/15 10:27:23;;;;;;;4.05;2.40;;;;;;;31.26;40.26;100605.34;1452218;88;22206;-80
2023/07/15 10:29:58;;;;;;;4.87;1.98;;;;;;;31.09;38.24;100602.97;1459650;89;21385;-80
2023/07/15 10:32:24;;;;;;;3.42;2.30;;;;;;;31.14;39.27;100602.95;1452840;89;21563;-79
2023/07/15 10:34:52;;;;;;;6.20;2.47;;;;;;;31.20;38.28;100590.89;1468611;89;21297;-77
2023/07/15 10:37:20;;;;;;;2.40;1.92;;;;;;;31.32;40.25;100597.38;1460910;89;21422;-79
2023/07/15 10:39:47;;;;;;;8.20;2.37;;;;;;;31.46;40.20;100594.88;1461613;89;21474;-79
2023/07/15 10:42:17;;;;;;;4.17;2.05;;;;;;;31.61;39.49;100587.92;1457193;89;21370;-79
2023/07/15 10:44:48;;;;;;;4.22;2.20;;;;;;;31.79;39.34;100590.53;1448652;89;21319;-79
2023/07/15 10:47:17;;;;;;;3.90;2.42;;;;;;;31.88;39.19;100587.47;1458216;89;21459;-79
2023/07/15 10:49:44;;;;;;;5.97;2.08;;;;;;;31.99;38.10;100582.73;1464171;89;21405;-78
2023/07/15 10:52:12;;;;;;;3.25;2.15;;;;;;;31.99;38.20;100581.37;1450302;89;21370;-79
2023/07/15 10:54:40;;;;;;;2.33;2.12;;;;;;;31.96;38.00;100577.84;1461391;89;22310;-79
2023/07/15 10:57:18;;;;;;;5.62;2.37;;;;;;;31.98;37.84;100584.41;1453850;89;21540;-79
2023/07/15 10:59:46;;;;;;;2.80;2.27;;;;;;;32.04;38.02;100577.78;1462306;89;21571;-80
2023/07/15 11:02:13;;;;;;;2.52;2.30;;;;;;;32.07;37.89;100579.38;1460492;89;21348;-79
2023/07/15 11:04:41;;;;;;;2.27;2.05;;;;;;;32.16;37.92;100582.31;1443302;89;22018;-79
2023/07/15 11:07:10;;;;;;;2.65;2.30;;;;;;;32.19;37.28;100575.45;1458316;89;21415;-79
2023/07/15 11:09:40;;;;;;;7.33;2.47;;;;;;;32.18;37.31;100577.38;1468523;89;21370;-78
2023/07/15 11:12:09;;;;;;;3.20;2.22;;;;;;;32.24;37.12;100573.48;1440008;89;21489;-78
2023/07/15 11:14:45;;;;;;;4.37;2.50;;;;;;;32.30;36.86;100572.87;1460931;89;22443;-79
2023/07/15 11:17:16;;;;;;;3.92;2.87;;;;;;;32.24;36.94;100574.04;1458897;89;21645;-79
2023/07/15 11:19:42;;;;;;;4.30;2.40;;;;;;;32.24;36.77;100568.00;1455868;89;21326;-79
2023/07/15 11:22:10;;;;;;;6.47;2.35;;;;;;;32.24;37.20;100568.56;1456041;89;21475;-79
2023/07/15 11:24:36;;;;;;;7.10;2.20;;;;;;;32.22;37.51;100563.92;1457699;89;21341;-78
2023/07/15 11:27:03;;;;;;;2.92;1.92;;;;;;;32.26;38.05;100562.25;1468418;89;21357;-80
2023/07/15 11:29:29;;;;;;;3.02;2.02;;;;;;;32.36;37.41;100562.94;1461249;89;21522;-80